createdAt,value
2023-03-03T00:02:16.278Z,47.30
2023-03-03T00:04:48.790Z,51.03
2023-03-03T00:07:23.467Z,48.57
2023-03-03T00:09:56.337Z,68.10
2023-03-03T00:12:28.689Z,70.93
2023-03-03T00:14:58.897Z,58.50
2023-03-03T00:17:30.339Z,63.90
2023-03-03T00:20:06.179Z,53.47
2023-03-03T00:22:40.403Z,62.17
2023-03-03T00:25:31.003Z,78.80
2023-03-03T00:28:08.388Z,65.63
2023-03-03T00:30:38.311Z,60.50
2023-03-03T00:33:23.546Z,62.63
2023-03-03T00:35:55.945Z,65.60
2023-03-03T00:38:26.343Z,56.67
2023-03-03T00:40:56.504Z,59.50
2023-03-03T00:43:28.147Z,47.70
2023-03-03T00:45:59.545Z,41.60
2023-03-03T00:48:31.426Z,48.53
2023-03-03T00:51:12.067Z,52.40
2023-03-03T00:53:42.213Z,46.63
2023-03-03T00:56:11.993Z,38.47
2023-03-03T00:58:41.956Z,34.93
2023-03-03T01:01:11.774Z,40.43
2023-03-03T01:03:41.650Z,42.47
2023-03-03T01:06:15.525Z,33.30
2023-03-03T01:08:45.240Z,42.93
2023-03-03T01:11:19.363Z,37.57
2023-03-03T01:13:52.819Z,42.03
2023-03-03T01:16:23.543Z,40.97
2023-03-03T01:18:55.254Z,37.73
2023-03-03T01:21:28.037Z,42.13
2023-03-03T01:23:58.246Z,44.33
2023-03-03T01:26:31.643Z,48.50
2023-03-03T01:29:01.325Z,57.30
2023-03-03T01:31:31.322Z,49.07
2023-03-03T01:34:01.242Z,50.30
2023-03-03T01:36:33.678Z,51.43
2023-03-03T01:39:04.095Z,51.00
2023-03-03T01:41:35.369Z,36.90
2023-03-03T01:44:05.463Z,34.83
2023-03-03T01:46:44.622Z,43.97
2023-03-03T01:49:18.505Z,41.90
2023-03-03T01:51:58.144Z,46.13
2023-03-03T01:54:33.358Z,41.53
2023-03-03T01:57:08.546Z,37.63
2023-03-03T01:59:47.426Z,39.20
2023-03-03T02:02:17.386Z,37.70
2023-03-03T02:04:47.332Z,43.27
2023-03-03T02:07:22.108Z,43.13
2023-03-03T02:10:02.137Z,44.73
2023-03-03T02:12:36.674Z,54.50
2023-03-03T02:15:19.431Z,56.80
2023-03-03T02:17:51.242Z,38.87
2023-03-03T02:20:31.832Z,50.77
2023-03-03T02:23:10.791Z,56.20
2023-03-03T02:25:47.238Z,37.37
2023-03-03T02:28:20.130Z,37.67
2023-03-03T02:30:50.423Z,32.23
2023-03-03T02:33:20.204Z,33.83
2023-03-03T02:35:50.396Z,37.67
2023-03-03T02:38:28.858Z,40.53
2023-03-03T02:41:10.227Z,45.27
2023-03-03T02:43:48.803Z,41.27
2023-03-03T02:46:19.307Z,49.20
2023-03-03T02:48:49.273Z,53.73
2023-03-03T02:51:19.136Z,50.00
2023-03-03T02:53:49.046Z,56.13
2023-03-03T02:56:19.408Z,54.77
2023-03-03T02:58:51.952Z,45.57
2023-03-03T03:01:22.441Z,50.33
2023-03-03T03:03:52.490Z,53.93
2023-03-03T03:06:23.682Z,49.80
2023-03-03T03:08:56.461Z,52.00
2023-03-03T03:11:26.283Z,48.90
2023-03-03T03:14:00.104Z,55.37
2023-03-03T03:16:30.163Z,52.43
2023-03-03T03:19:00.155Z,54.27
2023-03-03T03:21:30.182Z,45.50
2023-03-03T03:24:00.660Z,52.63
2023-03-03T03:26:30.527Z,49.50
2023-03-03T03:29:03.218Z,45.57
2023-03-03T03:31:33.862Z,45.70
2023-03-03T03:34:03.615Z,45.50
2023-03-03T03:36:35.703Z,45.03
2023-03-03T03:39:06.459Z,41.73
2023-03-03T03:41:36.505Z,45.87
2023-03-03T03:44:08.956Z,45.97
2023-03-03T03:46:38.824Z,46.33
2023-03-03T03:49:08.921Z,40.93
2023-03-03T03:51:41.588Z,44.17
2023-03-03T03:54:11.629Z,43.80
2023-03-03T03:56:41.611Z,45.07
2023-03-03T03:59:14.086Z,51.13
2023-03-03T04:01:44.099Z,47.57
2023-03-03T04:04:14.111Z,46.60
2023-03-03T04:06:44.128Z,41.93
2023-03-03T04:09:14.073Z,56.30
2023-03-03T04:11:44.196Z,46.87
2023-03-03T04:14:16.798Z,47.73
2023-03-03T04:16:46.898Z,57.40
2023-03-03T04:19:16.779Z,51.53
2023-03-03T04:21:46.669Z,53.70
2023-03-03T04:24:16.933Z,60.80
2023-03-03T04:26:51.482Z,52.67
2023-03-03T04:29:24.118Z,56.67
2023-03-03T04:31:54.119Z,62.03
2023-03-03T04:34:24.114Z,63.00
2023-03-03T04:36:54.061Z,49.60
2023-03-03T04:39:24.050Z,55.33
2023-03-03T04:41:53.951Z,58.07
2023-03-03T04:44:27.630Z,50.00
2023-03-03T04:46:57.589Z,51.40
2023-03-03T04:49:27.715Z,50.40
2023-03-03T04:51:57.712Z,50.27
2023-03-03T04:54:27.928Z,49.80
2023-03-03T04:56:58.745Z,45.83
2023-03-03T04:59:31.630Z,46.70
2023-03-03T05:02:01.559Z,48.40
2023-03-03T05:04:33.354Z,48.90
2023-03-03T05:07:03.372Z,45.13
2023-03-03T05:09:33.554Z,45.03
2023-03-03T05:12:03.592Z,50.47
2023-03-03T05:14:36.159Z,48.97
2023-03-03T05:17:06.252Z,39.50
2023-03-03T05:19:36.590Z,45.47
2023-03-03T05:22:07.928Z,45.07
2023-03-03T05:24:37.887Z,42.50
2023-03-03T05:27:07.992Z,51.07
2023-03-03T05:29:40.705Z,40.03
2023-03-03T05:32:11.024Z,53.03
2023-03-03T05:34:41.459Z,45.07
2023-03-03T05:37:11.701Z,52.10
2023-03-03T05:39:42.078Z,50.37
2023-03-03T05:42:12.431Z,46.10
2023-03-03T05:44:45.572Z,53.83
2023-03-03T05:47:15.768Z,43.47
2023-03-03T05:49:45.719Z,49.73
2023-03-03T05:52:15.592Z,58.23
2023-03-03T05:54:45.486Z,50.67
2023-03-03T05:57:15.693Z,50.57
2023-03-03T05:59:48.279Z,52.27
2023-03-03T06:02:18.287Z,56.27
2023-03-03T06:04:48.531Z,50.53
2023-03-03T06:07:18.448Z,57.70
2023-03-03T06:09:48.386Z,49.13
2023-03-03T06:12:18.744Z,49.03
2023-03-03T06:14:51.338Z,48.73
2023-03-03T06:17:21.534Z,48.93
2023-03-03T06:19:51.800Z,55.87
2023-03-03T06:22:21.761Z,51.73
2023-03-03T06:24:55.663Z,52.33
2023-03-03T06:27:25.624Z,56.70
2023-03-03T06:29:58.356Z,46.13
2023-03-03T06:32:30.645Z,47.07
2023-03-03T06:35:00.663Z,47.87
2023-03-03T06:37:30.687Z,42.97
2023-03-03T06:40:01.097Z,54.33
2023-03-03T06:42:31.337Z,48.53
2023-03-03T06:45:04.061Z,46.87
2023-03-03T06:47:34.158Z,55.07
2023-03-03T06:50:04.255Z,59.30
2023-03-03T06:52:34.452Z,53.97
2023-03-03T06:55:16.292Z,65.77
2023-03-03T06:57:46.411Z,63.53
2023-03-03T07:00:23.217Z,59.20
2023-03-03T07:03:00.453Z,64.23
2023-03-03T07:05:33.290Z,57.70
2023-03-03T07:08:04.419Z,45.57
2023-03-03T07:10:35.890Z,57.47
2023-03-03T07:13:19.276Z,54.90
2023-03-03T07:15:53.443Z,57.00
2023-03-03T07:18:35.252Z,57.20
2023-03-03T07:21:17.698Z,60.17
2023-03-03T07:23:49.418Z,60.47
2023-03-03T07:26:23.056Z,67.47
2023-03-03T07:28:57.556Z,58.63
2023-03-03T07:31:37.120Z,57.17
2023-03-03T07:34:19.054Z,53.67
2023-03-03T07:36:49.352Z,55.00
2023-03-03T07:39:32.297Z,45.67
2023-03-03T07:42:17.768Z,41.47
2023-03-03T07:44:49.103Z,46.07
2023-03-03T07:47:25.894Z,46.27
2023-03-03T07:50:00.128Z,55.80
2023-03-03T07:52:34.137Z,49.90
2023-03-03T07:55:21.584Z,54.93
2023-03-03T07:57:59.102Z,55.73
2023-03-03T08:01:12.844Z,61.50
2023-03-03T08:03:47.952Z,58.57
2023-03-03T08:06:47.529Z,55.23
2023-03-03T08:09:33.080Z,55.13
2023-03-03T08:12:15.028Z,58.90
2023-03-03T08:14:45.175Z,60.20
2023-03-03T08:17:20.627Z,67.40
2023-03-03T08:19:54.336Z,64.50
2023-03-03T08:22:33.449Z,60.67
2023-03-03T08:25:03.754Z,54.97
2023-03-03T08:27:33.678Z,64.97
2023-03-03T08:30:03.669Z,55.20
2023-03-03T08:32:33.770Z,55.40
2023-03-03T08:35:06.979Z,61.20
2023-03-03T08:37:37.158Z,58.80
2023-03-03T08:40:07.666Z,44.63
2023-03-03T08:42:37.703Z,57.90
2023-03-03T08:45:08.696Z,55.73
2023-03-03T08:47:39.258Z,61.10
2023-03-03T08:50:12.809Z,55.87
2023-03-03T08:52:43.455Z,59.93
2023-03-03T08:55:13.942Z,56.80
2023-03-03T08:57:44.206Z,50.17
2023-03-03T09:00:17.020Z,67.40
2023-03-03T09:02:47.287Z,67.03
2023-03-03T09:05:21.183Z,70.37
2023-03-03T09:07:52.384Z,57.53
2023-03-03T09:10:29.656Z,61.87
2023-03-03T09:13:02.031Z,56.37
2023-03-03T09:15:34.040Z,65.57
2023-03-03T09:18:16.958Z,57.53
2023-03-03T09:20:51.213Z,52.47
2023-03-03T09:23:37.288Z,45.70
2023-03-03T09:26:32.689Z,52.23
2023-03-03T09:29:13.312Z,50.90
2023-03-03T09:31:46.408Z,53.80
2023-03-03T09:34:23.877Z,52.10
2023-03-03T09:37:00.277Z,41.27
2023-03-03T09:39:33.847Z,60.53
2023-03-03T09:42:36.401Z,44.53
2023-03-03T09:45:24.029Z,48.67
2023-03-03T09:48:13.995Z,51.47
2023-03-03T09:50:55.246Z,60.20
2023-03-03T09:53:45.477Z,58.43
2023-03-03T09:56:22.663Z,46.10
2023-03-03T09:59:07.694Z,49.83
2023-03-03T10:01:53.581Z,48.97
2023-03-03T10:04:45.627Z,50.00
2023-03-03T10:07:31.196Z,50.27
2023-03-03T10:10:23.074Z,49.73
2023-03-03T10:13:09.616Z,57.03
2023-03-03T10:15:54.315Z,44.80
2023-03-03T10:18:33.852Z,48.13
2023-03-03T10:21:14.844Z,49.60
2023-03-03T10:23:59.315Z,50.73
2023-03-03T10:27:13.518Z,48.00
2023-03-03T10:29:56.735Z,43.73
2023-03-03T10:33:06.097Z,50.10
2023-03-03T10:36:05.844Z,46.33
2023-03-03T10:38:49.626Z,44.87
2023-03-03T10:41:33.966Z,48.90
2023-03-03T10:44:21.979Z,45.07
2023-03-03T10:47:05.441Z,51.23
2023-03-03T10:49:51.393Z,36.57
2023-03-03T10:52:34.383Z,45.20
2023-03-03T10:55:21.058Z,37.90
2023-03-03T10:58:03.322Z,46.73
2023-03-03T11:00:42.420Z,41.67
2023-03-03T11:03:50.310Z,43.80
2023-03-03T11:06:28.107Z,52.93
2023-03-03T11:09:03.060Z,42.13
2023-03-03T11:11:44.773Z,42.33
2023-03-03T11:14:19.437Z,44.77
2023-03-03T11:17:04.385Z,42.03
2023-03-03T11:19:46.764Z,39.57
2023-03-03T11:22:30.963Z,37.67
2023-03-03T11:25:11.596Z,43.03
2023-03-03T11:28:19.222Z,45.83
2023-03-03T11:31:03.671Z,43.27
2023-03-03T11:33:43.671Z,41.87
2023-03-03T11:36:19.415Z,37.07
2023-03-03T11:38:59.564Z,43.17
2023-03-03T11:41:43.652Z,41.77
2023-03-03T11:44:24.026Z,40.70
2023-03-03T11:46:59.893Z,49.40
2023-03-03T11:49:39.860Z,45.40
2023-03-03T11:52:25.112Z,46.90
2023-03-03T11:55:00.616Z,45.40
2023-03-03T11:57:35.970Z,48.97
2023-03-03T12:00:27.132Z,56.60
2023-03-03T12:03:20.039Z,52.00
2023-03-03T12:06:01.520Z,58.97
2023-03-03T12:08:44.120Z,50.77
2023-03-03T12:11:24.699Z,45.13
2023-03-03T12:14:01.473Z,43.27
2023-03-03T12:16:45.789Z,39.87
2023-03-03T12:19:28.308Z,49.80
2023-03-03T12:22:17.114Z,55.57
2023-03-03T12:25:20.920Z,50.73
2023-03-03T12:27:57.874Z,50.90
2023-03-03T12:30:56.077Z,47.70
2023-03-03T12:33:35.225Z,41.97
2023-03-03T12:36:18.936Z,39.63
2023-03-03T12:38:59.112Z,41.10
2023-03-03T12:41:38.715Z,45.30
2023-03-03T12:44:16.742Z,39.57
2023-03-03T12:46:49.673Z,47.90
2023-03-03T12:49:19.580Z,46.97
2023-03-03T12:52:09.164Z,45.13
2023-03-03T12:54:56.397Z,39.20
2023-03-03T12:57:35.661Z,38.87
2023-03-03T13:00:30.283Z,41.77
2023-03-03T13:03:09.603Z,38.07
2023-03-03T13:05:52.745Z,45.33
2023-03-03T13:08:40.869Z,46.67
2023-03-03T13:11:31.375Z,42.93
2023-03-03T13:14:11.575Z,41.63
2023-03-03T13:16:47.414Z,41.97
2023-03-03T13:19:23.242Z,40.33
2023-03-03T13:21:58.569Z,42.27
2023-03-03T13:24:37.553Z,48.90
2023-03-03T13:27:14.050Z,40.30
2023-03-03T13:29:45.660Z,35.10
2023-03-03T13:32:21.623Z,41.83
2023-03-03T13:34:58.257Z,58.37
2023-03-03T13:37:32.747Z,50.30
2023-03-03T13:40:08.670Z,49.53
2023-03-03T13:42:44.735Z,49.20
2023-03-03T13:45:26.657Z,51.10
2023-03-03T13:48:03.066Z,42.33
2023-03-03T13:50:38.311Z,41.13
2023-03-03T13:53:27.529Z,47.13
2023-03-03T13:56:04.392Z,45.10
2023-03-03T13:58:45.355Z,42.23
2023-03-03T14:01:21.512Z,43.60
2023-03-03T14:04:02.700Z,39.03
2023-03-03T14:06:33.371Z,41.80
2023-03-03T14:09:12.376Z,37.53
2023-03-03T14:11:50.049Z,36.07
2023-03-03T14:14:42.746Z,34.33
2023-03-03T14:17:19.545Z,34.60
2023-03-03T14:19:57.818Z,32.53
2023-03-03T14:22:36.740Z,27.23
2023-03-03T14:25:11.691Z,35.40
2023-03-03T14:27:44.070Z,29.07
2023-03-03T14:30:35.877Z,29.20
2023-03-03T14:33:18.845Z,29.10
2023-03-03T14:35:54.872Z,27.57
2023-03-03T14:38:27.923Z,24.77
2023-03-03T14:41:09.163Z,33.37
2023-03-03T14:43:40.673Z,29.63
2023-03-03T14:46:36.497Z,27.20
2023-03-03T14:49:09.079Z,32.10
2023-03-03T14:51:48.385Z,31.07
2023-03-03T14:54:25.245Z,29.40
2023-03-03T14:57:10.864Z,28.77
2023-03-03T14:59:40.942Z,23.50
2023-03-03T15:02:39.012Z,30.13
2023-03-03T15:05:33.015Z,25.40
2023-03-03T15:08:13.347Z,29.93
2023-03-03T15:10:45.124Z,24.57
2023-03-03T15:13:36.546Z,21.40
2023-03-03T15:16:15.040Z,23.33
2023-03-03T15:19:21.095Z,22.03
2023-03-03T15:22:03.682Z,23.60
2023-03-03T15:24:41.649Z,20.03
2023-03-03T15:27:20.580Z,19.27
2023-03-03T15:30:04.103Z,20.57
2023-03-03T15:32:40.948Z,23.40
2023-03-03T15:35:28.468Z,21.63
2023-03-03T15:38:05.821Z,21.73
2023-03-03T15:40:42.273Z,22.63
2023-03-03T15:43:23.457Z,18.23
2023-03-03T15:46:01.868Z,20.83
2023-03-03T15:49:03.697Z,18.27
2023-03-03T15:52:03.678Z,18.17
2023-03-03T15:54:45.408Z,15.63
2023-03-03T15:57:25.146Z,20.00
2023-03-03T16:00:12.129Z,18.97
2023-03-03T16:02:52.429Z,23.07
2023-03-03T16:05:26.628Z,22.00
2023-03-03T16:08:14.186Z,23.57
2023-03-03T16:10:55.481Z,22.63
2023-03-03T16:13:35.753Z,20.00
2023-03-03T16:16:15.839Z,19.73
2023-03-03T16:19:01.101Z,21.70
2023-03-03T16:21:53.544Z,21.33
2023-03-03T16:24:35.276Z,22.07
2023-03-03T16:27:15.975Z,21.73
2023-03-03T16:30:06.163Z,20.13
2023-03-03T16:32:43.766Z,21.33
2023-03-03T16:35:25.214Z,20.37
2023-03-03T16:38:01.208Z,22.77
2023-03-03T16:40:37.549Z,21.17
2023-03-03T16:43:21.879Z,25.80
2023-03-03T16:45:52.692Z,19.60
2023-03-03T16:48:35.490Z,23.83
2023-03-03T16:51:17.687Z,20.67
2023-03-03T16:53:57.212Z,19.90
2023-03-03T16:56:36.965Z,20.33
2023-03-03T16:59:24.028Z,26.63
2023-03-03T17:02:06.414Z,20.77
2023-03-03T17:04:46.263Z,20.70
2023-03-03T17:07:34.239Z,23.43
2023-03-03T17:10:19.666Z,22.97
2023-03-03T17:13:19.348Z,18.20
2023-03-03T17:16:03.088Z,23.47
2023-03-03T17:18:43.329Z,24.43
2023-03-03T17:21:23.325Z,17.97
2023-03-03T17:24:04.313Z,22.07
2023-03-03T17:26:46.036Z,21.03
2023-03-03T17:29:43.415Z,21.87
2023-03-03T17:32:28.586Z,22.20
2023-03-03T17:35:17.074Z,20.30
2023-03-03T17:37:57.121Z,16.80
2023-03-03T17:40:44.883Z,28.57
2023-03-03T17:43:20.229Z,22.30
2023-03-03T17:45:55.806Z,26.27
2023-03-03T17:48:50.888Z,22.00
2023-03-03T17:51:37.332Z,24.77
2023-03-03T17:54:31.176Z,18.70
2023-03-03T17:57:14.163Z,22.83
2023-03-03T18:00:09.624Z,17.07
2023-03-03T18:03:11.954Z,21.77
2023-03-03T18:06:15.904Z,24.27
2023-03-03T18:09:13.614Z,19.47
2023-03-03T18:12:00.961Z,20.37
2023-03-03T18:14:49.755Z,22.10
2023-03-03T18:17:38.367Z,20.07
2023-03-03T18:20:49.948Z,21.10
2023-03-03T18:23:34.148Z,17.57
2023-03-03T18:26:05.378Z,22.47
2023-03-03T18:28:49.784Z,24.30
2023-03-03T18:31:27.994Z,29.40
2023-03-03T18:34:10.031Z,22.90
2023-03-03T18:36:56.069Z,25.67
2023-03-03T18:39:45.710Z,22.47
2023-03-03T18:42:38.173Z,21.73
2023-03-03T18:45:44.030Z,21.93
2023-03-03T18:48:15.216Z,22.63
2023-03-03T18:50:47.424Z,24.37
2023-03-03T18:53:28.813Z,24.17
2023-03-03T18:56:00.743Z,21.00
2023-03-03T18:58:42.513Z,31.83
2023-03-03T19:01:39.253Z,24.97
2023-03-03T19:04:24.790Z,24.37
2023-03-03T19:07:13.539Z,20.90
2023-03-03T19:09:57.351Z,21.93
2023-03-03T19:12:46.776Z,27.93
2023-03-03T19:15:51.872Z,21.63
2023-03-03T19:18:25.826Z,25.77
2023-03-03T19:21:00.109Z,29.43
2023-03-03T19:23:52.772Z,22.90
2023-03-03T19:26:53.279Z,14.20
2023-03-03T19:29:53.134Z,14.50
2023-03-03T19:33:02.670Z,16.30
2023-03-03T19:35:41.644Z,16.37
2023-03-03T19:38:25.528Z,21.17
2023-03-03T19:41:01.581Z,16.47
2023-03-03T19:43:41.981Z,20.33
2023-03-03T19:46:30.014Z,15.10
2023-03-03T19:49:13.885Z,15.20
2023-03-03T19:51:53.255Z,17.40
2023-03-03T19:54:37.452Z,16.10
2023-03-03T19:57:14.437Z,15.50
2023-03-03T19:59:51.321Z,13.23
2023-03-03T20:02:37.903Z,12.10
2023-03-03T20:05:22.695Z,10.60
2023-03-03T20:08:00.155Z,10.47
2023-03-03T20:10:51.217Z,14.93
2023-03-03T20:13:58.122Z,9.93
2023-03-03T20:16:41.533Z,13.90
2023-03-03T20:19:27.838Z,9.93
2023-03-03T20:22:12.031Z,10.30
2023-03-03T20:24:57.792Z,8.83
2023-03-03T20:27:36.421Z,10.07
2023-03-03T20:30:13.366Z,8.00
2023-03-03T20:32:57.672Z,8.93
2023-03-03T20:35:40.019Z,9.83
2023-03-03T20:38:25.327Z,11.07
2023-03-03T20:41:06.320Z,9.00
2023-03-03T20:43:50.532Z,10.23
2023-03-03T20:46:25.963Z,10.00
2023-03-03T20:49:14.045Z,7.70
2023-03-03T20:51:50.089Z,9.90
2023-03-03T20:54:30.042Z,10.57
2023-03-03T20:57:09.137Z,9.73
2023-03-03T20:59:45.211Z,10.47
2023-03-03T21:02:23.707Z,7.33
2023-03-03T21:05:12.384Z,10.70
2023-03-03T21:07:53.878Z,8.47
2023-03-03T21:10:28.402Z,8.90
2023-03-03T21:13:01.118Z,7.67
2023-03-03T21:15:34.065Z,9.80
2023-03-03T21:18:22.467Z,9.70
2023-03-03T21:20:52.645Z,11.87
2023-03-03T21:23:23.466Z,12.97
2023-03-03T21:25:58.643Z,13.43
2023-03-03T21:28:30.706Z,14.20
2023-03-03T21:31:13.310Z,12.23
2023-03-03T21:33:54.783Z,10.13
2023-03-03T21:36:26.645Z,11.03
2023-03-03T21:38:58.552Z,10.80
2023-03-03T21:41:31.142Z,10.50
2023-03-03T21:44:00.925Z,6.97
2023-03-03T21:46:30.900Z,13.40
2023-03-03T21:49:00.656Z,10.77
2023-03-03T21:51:30.671Z,9.60
2023-03-03T21:54:00.513Z,11.83
2023-03-03T21:56:35.169Z,9.00
2023-03-03T21:59:04.976Z,10.20
2023-03-03T22:01:37.740Z,10.33
2023-03-03T22:04:08.671Z,8.93
2023-03-03T22:06:39.893Z,8.03
2023-03-03T22:09:10.629Z,11.93
2023-03-03T22:11:43.378Z,12.23
2023-03-03T22:14:13.278Z,7.37
2023-03-03T22:16:43.292Z,11.77
2023-03-03T22:19:13.168Z,8.87
2023-03-03T22:21:43.877Z,13.60
2023-03-03T22:24:13.791Z,8.90
2023-03-03T22:26:46.707Z,11.03
2023-03-03T22:29:17.252Z,7.70
2023-03-03T22:31:47.185Z,10.83
2023-03-03T22:34:17.995Z,10.63
2023-03-03T22:36:47.741Z,9.17
2023-03-03T22:39:17.570Z,8.50
2023-03-03T22:41:49.921Z,11.70
2023-03-03T22:44:19.891Z,9.57
2023-03-03T22:46:49.628Z,8.30
2023-03-03T22:49:19.541Z,9.10
2023-03-03T22:51:49.356Z,10.17
2023-03-03T22:54:19.141Z,6.50
2023-03-03T22:56:51.806Z,17.30
2023-03-03T22:59:22.196Z,11.53
2023-03-03T23:01:52.022Z,10.13
2023-03-03T23:04:21.891Z,13.10
2023-03-03T23:06:52.004Z,7.50
2023-03-03T23:09:21.850Z,6.60
2023-03-03T23:11:54.810Z,14.57
2023-03-03T23:14:24.577Z,12.37
2023-03-03T23:16:54.588Z,7.90
2023-03-03T23:19:24.496Z,15.33
2023-03-03T23:21:54.420Z,16.17
2023-03-03T23:24:24.208Z,11.97
2023-03-03T23:26:58.197Z,12.37
2023-03-03T23:29:28.272Z,9.13
2023-03-03T23:31:58.030Z,15.53
2023-03-03T23:34:27.984Z,8.37
2023-03-03T23:36:57.968Z,11.50
2023-03-03T23:39:28.057Z,5.67
2023-03-03T23:42:00.453Z,14.40
2023-03-03T23:44:30.237Z,14.63
2023-03-03T23:47:00.052Z,14.30
2023-03-03T23:49:29.928Z,15.93
2023-03-03T23:51:59.680Z,15.40
2023-03-03T23:54:29.994Z,14.17
2023-03-03T23:57:02.483Z,14.37
2023-03-03T23:59:32.427Z,13.03
